Terminal Aerodrome Forecast
Issued by NWS

Home | Current Version | Previous Version | Text Only | Print | Product List | Glossary On
Versions: 1 2 3 4 5 6 7 8 9 10 11 12 13 14 15 16
293
FTUS42 TJSJ 200143 AAA
TAFISX
TAF AMD
TISX 200143Z 2002/2024 03035G60KT 1SM +TSRA BKN015 BKN025CB
     FM200300 02060G100KT 1SM +TSRA BKN015 OVC025CB
     FM200600 13040G70KT 1SM +TSRA SCT015 BKN030CB
     FM201000 18025G40KT 4SM SHRA SCT015 BKN030
     FM201600 20012G20KT 5SM -RA SCT020 BKN035=

USA.gov is the U.S. government's official web portal to all federal, state and local government web resources and services.